createdAt,value
2023-05-19T00:01:08.138Z,12.30
2023-05-19T00:05:15.241Z,12.30
2023-05-19T00:09:20.097Z,12.20
2023-05-19T00:13:24.741Z,12.20
2023-05-19T00:17:28.381Z,12.20
2023-05-19T00:21:32.966Z,12.20
2023-05-19T00:25:37.502Z,12.20
2023-05-19T00:29:42.148Z,12.10
2023-05-19T00:33:45.186Z,12.10
2023-05-19T00:37:50.045Z,12.00
2023-05-19T00:41:54.516Z,12.00
2023-05-19T00:46:00.426Z,12.00
2023-05-19T00:50:08.531Z,11.90
2023-05-19T00:54:11.976Z,11.80
2023-05-19T00:58:17.794Z,11.80
2023-05-19T01:02:21.602Z,11.70
2023-05-19T01:06:25.632Z,11.60
2023-05-19T01:10:30.503Z,11.50
2023-05-19T01:14:40.196Z,11.40
2023-05-19T01:18:56.310Z,11.30
2023-05-19T01:23:20.840Z,11.20
2023-05-19T01:27:53.920Z,11.10
2023-05-19T01:32:08.080Z,11.00
2023-05-19T01:36:23.647Z,10.90
2023-05-19T01:40:27.991Z,10.80
2023-05-19T01:44:32.037Z,10.80
2023-05-19T01:48:42.556Z,10.70
2023-05-19T01:52:48.201Z,10.60
2023-05-19T01:56:59.999Z,10.60
2023-05-19T02:01:10.513Z,10.50
2023-05-19T02:05:29.593Z,10.40
2023-05-19T02:09:42.570Z,10.40
2023-05-19T02:13:51.403Z,10.30
2023-05-19T02:17:58.402Z,10.20
2023-05-19T02:22:09.063Z,10.20
2023-05-19T02:26:12.155Z,10.10
2023-05-19T02:30:15.367Z,10.10
2023-05-19T02:34:19.098Z,10.10
2023-05-19T02:38:24.468Z,10.20
2023-05-19T02:42:36.132Z,10.20
2023-05-19T02:46:39.487Z,10.30
2023-05-19T02:50:43.668Z,10.30
2023-05-19T02:54:51.461Z,10.30
2023-05-19T02:58:54.748Z,10.40
2023-05-19T03:03:04.244Z,10.40
2023-05-19T03:07:07.318Z,10.40
2023-05-19T03:11:11.793Z,10.50
2023-05-19T03:15:15.114Z,10.50
2023-05-19T03:19:18.875Z,10.50
2023-05-19T03:23:22.799Z,10.50
2023-05-19T03:27:27.305Z,10.60
2023-05-19T03:31:31.035Z,10.60
2023-05-19T03:35:34.179Z,10.70
2023-05-19T03:39:37.535Z,10.70
2023-05-19T03:43:42.074Z,10.80
2023-05-19T03:47:51.193Z,10.80
2023-05-19T03:51:54.778Z,10.90
2023-05-19T03:56:00.738Z,10.90
2023-05-19T04:00:06.386Z,11.00
2023-05-19T04:04:13.525Z,11.00
2023-05-19T04:08:19.516Z,11.00
2023-05-19T04:12:25.102Z,11.00
2023-05-19T04:16:30.708Z,11.00
2023-05-19T04:20:34.352Z,11.00
2023-05-19T04:24:51.706Z,11.00
2023-05-19T04:29:04.514Z,11.10
2023-05-19T04:33:09.385Z,11.10
2023-05-19T04:37:12.903Z,11.20
2023-05-19T04:41:16.829Z,11.30
2023-05-19T04:45:19.931Z,11.40
2023-05-19T04:49:28.646Z,11.50
2023-05-19T04:53:40.290Z,11.50
2023-05-19T04:57:43.329Z,11.60
2023-05-19T05:01:47.054Z,11.60
2023-05-19T05:05:51.692Z,11.70
2023-05-19T05:09:55.045Z,11.80
2023-05-19T05:13:59.059Z,11.90
2023-05-19T05:18:02.598Z,12.00
2023-05-19T05:22:07.769Z,12.20
2023-05-19T05:26:19.126Z,12.30
2023-05-19T05:30:25.134Z,12.50
2023-05-19T05:34:28.249Z,12.80
2023-05-19T05:38:35.263Z,12.90
2023-05-19T05:42:49.574Z,13.00
2023-05-19T05:46:58.747Z,13.10
2023-05-19T05:51:04.011Z,13.20
2023-05-19T05:55:12.933Z,13.20
2023-05-19T05:59:16.390Z,13.30
2023-05-19T06:03:34.275Z,13.60
2023-05-19T06:07:37.735Z,13.80
2023-05-19T06:11:42.271Z,13.90
2023-05-19T06:15:46.356Z,14.10
2023-05-19T06:19:49.730Z,14.20
2023-05-19T06:23:54.063Z,14.30
2023-05-19T06:27:58.765Z,14.30
2023-05-19T06:32:01.825Z,14.60
2023-05-19T06:36:08.552Z,14.90
2023-05-19T06:40:13.750Z,15.20
2023-05-19T06:44:20.432Z,15.40
2023-05-19T06:48:24.227Z,15.40
2023-05-19T06:52:28.999Z,15.60
2023-05-19T06:56:32.050Z,15.80
2023-05-19T07:00:37.045Z,15.90
2023-05-19T07:04:41.140Z,15.90
2023-05-19T07:08:44.813Z,16.40
2023-05-19T07:12:50.757Z,16.80
2023-05-19T07:16:56.923Z,16.70
2023-05-19T07:21:00.955Z,16.80
2023-05-19T07:25:04.315Z,16.70
2023-05-19T07:29:07.506Z,16.90
2023-05-19T07:33:12.337Z,17.20
2023-05-19T07:37:18.406Z,17.60
2023-05-19T07:41:25.345Z,18.10
2023-05-19T07:45:28.418Z,18.30
2023-05-19T07:49:36.423Z,18.60
2023-05-19T07:53:44.386Z,18.00
2023-05-19T07:57:49.666Z,18.50
2023-05-19T08:01:52.723Z,19.20
2023-05-19T08:05:57.268Z,19.30
2023-05-19T08:10:00.365Z,18.80
2023-05-19T08:14:03.553Z,18.20
2023-05-19T08:18:07.871Z,17.80
2023-05-19T08:22:12.470Z,18.10
2023-05-19T08:26:15.524Z,18.60
2023-05-19T08:30:21.044Z,17.90
2023-05-19T08:34:24.249Z,17.80
2023-05-19T08:38:31.513Z,17.90
2023-05-19T08:42:35.132Z,17.80
2023-05-19T08:46:38.504Z,17.60
2023-05-19T08:50:43.583Z,17.70
2023-05-19T08:54:55.900Z,18.00
2023-05-19T08:59:00.560Z,18.00
2023-05-19T09:03:17.551Z,18.30
2023-05-19T09:07:22.530Z,19.10
2023-05-19T09:11:28.316Z,19.40
2023-05-19T09:15:34.097Z,19.20
2023-05-19T09:19:37.522Z,19.10
2023-05-19T09:23:49.848Z,19.40
2023-05-19T09:27:56.828Z,19.50
2023-05-19T09:32:05.329Z,19.60
2023-05-19T09:36:11.005Z,19.90
2023-05-19T09:40:16.932Z,19.50
2023-05-19T09:44:29.111Z,19.10
2023-05-19T09:48:32.200Z,19.10
2023-05-19T09:52:38.635Z,19.10
2023-05-19T09:56:41.758Z,19.30
2023-05-19T10:00:51.129Z,19.40
2023-05-19T10:04:56.278Z,19.70
2023-05-19T10:09:03.911Z,20.30
2023-05-19T10:13:09.360Z,21.90
2023-05-19T10:17:14.628Z,23.50
2023-05-19T10:21:20.584Z,23.90
2023-05-19T10:25:23.637Z,23.40
2023-05-19T10:29:33.033Z,22.80
2023-05-19T10:33:48.569Z,22.50
2023-05-19T10:37:58.971Z,21.80
2023-05-19T10:42:11.769Z,21.00
2023-05-19T10:46:16.138Z,20.50
2023-05-19T10:50:29.179Z,20.30
2023-05-19T10:54:52.670Z,20.60
2023-05-19T10:58:57.934Z,20.70
2023-05-19T11:03:16.039Z,20.60
2023-05-19T11:07:22.585Z,21.10
2023-05-19T11:11:28.817Z,21.10
2023-05-19T11:15:36.253Z,21.10
2023-05-19T11:19:42.061Z,20.80
2023-05-19T11:23:48.231Z,20.30
2023-05-19T11:27:52.897Z,20.60
2023-05-19T11:31:56.095Z,21.60
2023-05-19T11:36:01.083Z,21.80
2023-05-19T11:40:09.344Z,21.90
2023-05-19T11:44:17.232Z,22.00
2023-05-19T11:48:22.446Z,22.80
2023-05-19T11:52:27.523Z,22.40
2023-05-19T11:56:41.900Z,23.00
2023-05-19T12:00:46.354Z,23.50
2023-05-19T12:04:56.438Z,23.90
2023-05-19T12:09:00.096Z,23.60
2023-05-19T12:13:04.685Z,22.80
2023-05-19T12:17:22.152Z,22.30
2023-05-19T12:21:33.993Z,22.00
2023-05-19T12:25:38.484Z,22.20
2023-05-19T12:29:57.298Z,22.30
2023-05-19T12:34:02.390Z,22.40
2023-05-19T12:38:06.185Z,22.40
2023-05-19T12:42:10.551Z,22.30
2023-05-19T12:46:20.029Z,21.90
2023-05-19T12:50:23.217Z,21.70
2023-05-19T12:54:32.343Z,22.10
2023-05-19T12:58:38.279Z,22.10
2023-05-19T13:07:11.122Z,21.90
2023-05-19T13:11:17.728Z,21.60
2023-05-19T13:15:23.132Z,22.00
2023-05-19T13:19:32.612Z,21.90
2023-05-19T13:23:40.865Z,22.50
2023-05-19T13:27:44.422Z,23.40
2023-05-19T13:31:47.834Z,23.30
2023-05-19T13:35:51.722Z,22.70
2023-05-19T13:39:58.657Z,22.50
2023-05-19T13:44:02.449Z,23.20
2023-05-19T13:48:08.227Z,24.20
2023-05-19T13:52:11.675Z,23.90
2023-05-19T13:56:22.270Z,23.20
2023-05-19T14:00:25.795Z,22.80
2023-05-19T14:04:29.140Z,22.70
2023-05-19T14:08:32.452Z,22.70
2023-05-19T14:12:55.131Z,23.60
2023-05-19T14:17:05.551Z,23.00
2023-05-19T14:21:08.886Z,22.40
2023-05-19T14:25:12.313Z,21.90
2023-05-19T14:29:16.871Z,21.70
2023-05-19T14:33:21.547Z,21.60
2023-05-19T14:37:26.606Z,21.70
2023-05-19T14:41:29.748Z,22.00
2023-05-19T14:45:37.824Z,22.60
2023-05-19T14:49:46.915Z,22.60
2023-05-19T14:53:50.460Z,22.80
2023-05-19T14:57:53.505Z,22.80
2023-05-19T15:02:01.016Z,22.60
2023-05-19T15:06:04.085Z,22.50
2023-05-19T15:10:10.466Z,22.10
2023-05-19T15:14:18.451Z,22.00
2023-05-19T15:18:23.458Z,21.90
2023-05-19T15:22:26.557Z,21.70
2023-05-19T15:26:29.976Z,21.70
2023-05-19T15:30:33.016Z,21.60
2023-05-19T15:34:37.815Z,21.40
2023-05-19T15:38:40.860Z,21.40
2023-05-19T15:42:43.938Z,21.60
2023-05-19T15:46:47.316Z,21.60
2023-05-19T15:50:52.170Z,21.90
2023-05-19T15:54:59.457Z,22.00
2023-05-19T15:59:04.360Z,22.00
2023-05-19T16:03:13.116Z,21.90
2023-05-19T16:07:18.573Z,21.60
2023-05-19T16:11:23.368Z,21.40
2023-05-19T16:15:28.204Z,21.00
2023-05-19T16:19:31.393Z,20.70
2023-05-19T16:23:35.893Z,20.50
2023-05-19T16:27:39.008Z,20.30
2023-05-19T16:31:43.640Z,20.20
2023-05-19T16:35:48.817Z,20.10
2023-05-19T16:39:55.034Z,20.10
2023-05-19T16:43:58.299Z,20.10
2023-05-19T16:48:03.874Z,20.30
2023-05-19T16:52:07.744Z,20.50
2023-05-19T16:56:12.199Z,20.70
2023-05-19T17:00:17.473Z,20.50
2023-05-19T17:04:21.154Z,20.20
2023-05-19T17:08:28.163Z,20.10
2023-05-19T17:12:32.643Z,20.20
2023-05-19T17:16:38.748Z,20.40
2023-05-19T17:20:42.647Z,20.50
2023-05-19T17:24:46.039Z,20.60
2023-05-19T17:28:50.509Z,20.40
2023-05-19T17:32:54.050Z,20.30
2023-05-19T17:36:58.205Z,20.30
2023-05-19T17:41:04.864Z,20.20
2023-05-19T17:45:13.512Z,20.20
2023-05-19T17:49:16.680Z,20.00
2023-05-19T17:53:20.350Z,19.60
2023-05-19T17:57:30.686Z,19.10
2023-05-19T18:01:38.746Z,18.80
2023-05-19T18:05:43.947Z,18.50
2023-05-19T18:09:47.752Z,18.30
2023-05-19T18:13:50.839Z,18.10
2023-05-19T18:17:55.258Z,17.90
2023-05-19T18:21:58.430Z,17.70
2023-05-19T18:26:06.413Z,17.50
2023-05-19T18:30:10.199Z,17.40
2023-05-19T18:34:16.985Z,17.30
2023-05-19T18:38:20.110Z,17.20
2023-05-19T18:42:23.283Z,17.00
2023-05-19T18:46:26.508Z,16.90
2023-05-19T18:50:33.486Z,16.70
2023-05-19T18:54:37.871Z,16.60
2023-05-19T18:58:41.027Z,16.50
2023-05-19T19:02:44.196Z,16.40
2023-05-19T19:06:49.756Z,16.30
2023-05-19T19:10:54.724Z,16.20
2023-05-19T19:14:59.595Z,16.10
2023-05-19T19:19:03.722Z,16.00
2023-05-19T19:23:08.234Z,15.90
2023-05-19T19:27:19.903Z,15.80
2023-05-19T19:31:23.192Z,15.70
2023-05-19T19:35:26.470Z,15.70
2023-05-19T19:39:33.936Z,15.60
2023-05-19T19:43:36.998Z,15.60
2023-05-19T19:47:42.360Z,15.60
2023-05-19T19:51:46.267Z,15.50
2023-05-19T19:56:25.059Z,15.40
2023-05-19T20:00:40.086Z,15.40
2023-05-19T20:04:43.212Z,15.30
2023-05-19T20:08:49.709Z,15.30
2023-05-19T20:12:54.348Z,15.30
2023-05-19T20:16:57.637Z,15.30
2023-05-19T20:21:00.717Z,15.30
2023-05-19T20:25:04.395Z,15.40
2023-05-19T20:29:11.901Z,15.40
2023-05-19T20:33:15.086Z,15.50
2023-05-19T20:37:21.670Z,15.50
2023-05-19T20:41:30.490Z,15.60
2023-05-19T20:45:37.589Z,15.60
2023-05-19T20:49:41.083Z,15.60
2023-05-19T20:53:45.934Z,15.70
2023-05-19T20:57:49.609Z,15.70
2023-05-19T21:01:55.367Z,15.70
2023-05-19T21:06:00.732Z,15.70
2023-05-19T21:10:04.326Z,15.70
2023-05-19T21:14:12.440Z,15.70
2023-05-19T21:18:17.162Z,15.70
2023-05-19T21:22:23.351Z,15.70
2023-05-19T21:26:29.894Z,15.70
2023-05-19T21:30:33.236Z,15.70
2023-05-19T21:34:39.111Z,15.70
2023-05-19T21:38:47.031Z,15.70
2023-05-19T21:42:51.677Z,15.70
2023-05-19T21:46:54.763Z,15.70
2023-05-19T21:50:59.510Z,15.60
2023-05-19T21:55:02.918Z,15.60
2023-05-19T21:59:09.535Z,15.60
2023-05-19T22:03:15.458Z,15.50
2023-05-19T22:07:27.022Z,15.50
2023-05-19T22:11:30.420Z,15.50
2023-05-19T22:15:37.247Z,15.40
2023-05-19T22:19:50.622Z,15.40
2023-05-19T22:23:55.071Z,15.40
2023-05-19T22:28:01.720Z,15.40
2023-05-19T22:32:06.317Z,15.40
2023-05-19T22:36:13.501Z,15.40
2023-05-19T22:40:18.350Z,15.40
2023-05-19T22:44:21.605Z,15.30
2023-05-19T22:48:24.739Z,15.20
2023-05-19T22:52:28.160Z,15.20
2023-05-19T22:56:32.592Z,15.10
2023-05-19T23:00:37.590Z,15.10
2023-05-19T23:04:40.668Z,15.00
2023-05-19T23:08:44.792Z,15.00
2023-05-19T23:12:51.897Z,14.90
2023-05-19T23:16:55.093Z,14.90
2023-05-19T23:20:59.164Z,14.90
2023-05-19T23:25:08.441Z,14.90
2023-05-19T23:29:14.878Z,14.80
2023-05-19T23:33:18.178Z,14.80
2023-05-19T23:37:24.558Z,14.70
2023-05-19T23:41:27.796Z,14.70
2023-05-19T23:45:33.618Z,14.60
2023-05-19T23:49:36.819Z,14.60
2023-05-19T23:53:47.387Z,14.50
2023-05-19T23:57:52.506Z,14.50
